createdAt,value
2024-01-14T00:00:42.965Z,15.60
2024-01-14T00:03:10.413Z,17.40
2024-01-14T00:05:37.764Z,20.20
2024-01-14T00:08:05.517Z,20.60
2024-01-14T00:10:32.671Z,15.50
2024-01-14T00:12:59.884Z,18.20
2024-01-14T00:15:27.097Z,15.10
2024-01-14T00:17:54.354Z,14.40
2024-01-14T00:20:21.751Z,18.60
2024-01-14T00:22:49.232Z,16.10
2024-01-14T00:25:18.676Z,15.40
2024-01-14T00:27:45.840Z,15.20
2024-01-14T00:30:13.204Z,18.20
2024-01-14T00:32:40.511Z,14.30
2024-01-14T00:35:08.194Z,17.90
2024-01-14T00:37:35.336Z,17.70
2024-01-14T00:40:02.446Z,14.70
2024-01-14T00:42:29.632Z,13.70
2024-01-14T00:44:56.888Z,15.10
2024-01-14T00:47:24.205Z,16.50
2024-01-14T00:49:51.448Z,16.30
2024-01-14T00:52:18.745Z,12.80
2024-01-14T00:54:45.968Z,17.00
2024-01-14T00:57:13.163Z,12.70
2024-01-14T00:59:40.583Z,14.40
2024-01-14T01:02:08.005Z,17.10
2024-01-14T01:04:35.141Z,16.80
2024-01-14T01:07:02.293Z,16.50
2024-01-14T01:09:29.501Z,19.70
2024-01-14T01:11:56.751Z,16.30
2024-01-14T01:14:23.945Z,16.70
2024-01-14T01:16:51.097Z,15.30
2024-01-14T01:19:18.306Z,15.50
2024-01-14T01:21:45.533Z,16.20
2024-01-14T01:24:16.068Z,14.60
2024-01-14T01:26:43.299Z,15.70
2024-01-14T01:29:10.367Z,17.70
2024-01-14T01:31:45.950Z,15.70
2024-01-14T01:34:17.116Z,15.80
2024-01-14T01:36:44.402Z,18.20
2024-01-14T01:39:11.567Z,15.10
2024-01-14T01:41:38.867Z,16.90
2024-01-14T01:44:06.074Z,14.30
2024-01-14T01:46:35.795Z,16.90
2024-01-14T01:49:04.429Z,13.90
2024-01-14T01:51:32.809Z,21.00
2024-01-14T01:54:00.145Z,18.30
2024-01-14T01:56:27.981Z,14.80
2024-01-14T01:58:55.445Z,13.50
2024-01-14T02:01:23.141Z,14.40
2024-01-14T02:03:54.173Z,15.00
2024-01-14T02:06:22.759Z,14.40
2024-01-14T02:08:50.454Z,14.80
2024-01-14T02:11:17.716Z,16.80
2024-01-14T02:13:44.918Z,14.10
2024-01-14T02:16:12.007Z,15.10
2024-01-14T02:18:39.222Z,17.40
2024-01-14T02:21:09.924Z,23.00
2024-01-14T02:23:41.220Z,22.90
2024-01-14T02:26:08.650Z,16.20
2024-01-14T02:28:35.800Z,17.00
2024-01-14T02:31:03.729Z,13.90
2024-01-14T02:33:31.092Z,14.20
2024-01-14T02:35:58.403Z,13.70
2024-01-14T02:38:25.531Z,14.60
2024-01-14T02:40:52.811Z,13.80
2024-01-14T02:43:19.954Z,16.20
2024-01-14T02:45:47.104Z,19.30
2024-01-14T02:48:14.238Z,17.20
2024-01-14T02:50:41.474Z,16.00
2024-01-14T02:53:09.205Z,16.70
2024-01-14T02:55:36.355Z,14.10
2024-01-14T02:58:03.629Z,14.30
2024-01-14T03:00:30.936Z,12.20
2024-01-14T03:02:58.252Z,14.40
2024-01-14T03:05:25.520Z,16.00
2024-01-14T03:07:52.760Z,13.30
2024-01-14T03:10:19.924Z,14.10
2024-01-14T03:12:47.066Z,14.90
2024-01-14T03:15:14.487Z,15.30
2024-01-14T03:17:41.764Z,17.90
2024-01-14T03:20:09.787Z,18.50
2024-01-14T03:22:37.126Z,12.90
2024-01-14T03:25:04.672Z,15.20
2024-01-14T03:27:31.849Z,11.80
2024-01-14T03:29:59.022Z,12.70
2024-01-14T03:32:26.208Z,12.30
2024-01-14T03:34:53.313Z,13.00
2024-01-14T03:37:20.515Z,13.60
2024-01-14T03:39:47.712Z,11.90
2024-01-14T03:42:14.790Z,12.60
2024-01-14T03:44:43.344Z,10.90
2024-01-14T03:47:10.496Z,12.60
2024-01-14T03:49:38.007Z,11.70
2024-01-14T03:52:05.330Z,13.00
2024-01-14T03:54:32.635Z,12.50
2024-01-14T03:56:59.942Z,11.00
2024-01-14T03:59:27.173Z,12.40
2024-01-14T04:01:54.224Z,14.20
2024-01-14T04:04:21.388Z,15.30
2024-01-14T04:06:48.813Z,13.80
2024-01-14T04:09:16.272Z,13.90
2024-01-14T04:11:43.653Z,11.60
2024-01-14T04:14:10.878Z,14.50
2024-01-14T04:16:39.451Z,12.20
2024-01-14T04:19:07.397Z,15.80
2024-01-14T04:21:35.318Z,14.70
2024-01-14T04:24:05.767Z,15.40
2024-01-14T04:26:32.964Z,16.10
2024-01-14T04:29:00.204Z,16.80
2024-01-14T04:31:27.736Z,15.70
2024-01-14T04:33:55.193Z,12.70
2024-01-14T04:36:22.399Z,12.80
2024-01-14T04:38:49.675Z,11.30
2024-01-14T04:41:16.975Z,15.60
2024-01-14T04:43:44.254Z,13.60
2024-01-14T04:46:12.102Z,18.10
2024-01-14T04:48:39.516Z,16.10
2024-01-14T04:51:06.994Z,17.40
2024-01-14T04:53:34.230Z,12.50
2024-01-14T04:56:02.119Z,14.00
2024-01-14T04:58:29.183Z,16.70
2024-01-14T05:00:56.406Z,13.40
2024-01-14T05:03:23.757Z,14.00
2024-01-14T05:05:51.333Z,15.50
2024-01-14T05:08:18.700Z,14.30
2024-01-14T05:10:46.116Z,12.70
2024-01-14T05:13:13.517Z,16.20
2024-01-14T05:15:40.814Z,15.60
2024-01-14T05:18:08.289Z,12.60
2024-01-14T05:20:35.650Z,15.90
2024-01-14T05:23:05.391Z,13.10
2024-01-14T05:25:32.571Z,11.90
2024-01-14T05:27:59.721Z,13.40
2024-01-14T05:30:27.091Z,11.90
2024-01-14T05:32:54.789Z,12.60
2024-01-14T05:35:21.965Z,14.30
2024-01-14T05:37:49.106Z,12.50
2024-01-14T05:40:16.226Z,16.10
2024-01-14T05:42:44.105Z,13.10
2024-01-14T05:45:14.241Z,10.70
2024-01-14T05:47:41.968Z,14.60
2024-01-14T05:50:10.006Z,14.30
2024-01-14T05:52:37.157Z,13.70
2024-01-14T05:55:05.636Z,11.30
2024-01-14T05:57:32.982Z,13.10
2024-01-14T06:00:00.637Z,11.90
2024-01-14T06:02:29.157Z,15.30
2024-01-14T06:04:56.487Z,13.50
2024-01-14T06:07:23.849Z,11.20
2024-01-14T06:09:51.125Z,11.90
2024-01-14T06:12:18.331Z,13.40
2024-01-14T06:14:45.525Z,11.70
2024-01-14T06:17:12.812Z,12.30
2024-01-14T06:19:42.739Z,11.00
2024-01-14T06:22:10.103Z,11.30
2024-01-14T06:24:37.410Z,14.80
2024-01-14T06:27:05.185Z,13.40
2024-01-14T06:29:32.300Z,14.70
2024-01-14T06:32:02.461Z,13.70
2024-01-14T06:34:29.643Z,13.90
2024-01-14T06:36:56.976Z,11.90
2024-01-14T06:39:24.086Z,11.70
2024-01-14T06:41:53.275Z,14.00
2024-01-14T06:44:20.503Z,15.90
2024-01-14T06:46:48.045Z,15.60
2024-01-14T06:49:15.346Z,14.20
2024-01-14T06:51:46.956Z,18.70
2024-01-14T06:54:14.254Z,17.10
2024-01-14T06:56:45.688Z,15.10
2024-01-14T06:59:19.684Z,17.90
2024-01-14T07:01:50.759Z,21.80
2024-01-14T07:04:18.252Z,14.20
2024-01-14T07:06:45.777Z,16.90
2024-01-14T07:09:14.285Z,15.20
2024-01-14T07:11:41.716Z,14.70
2024-01-14T07:14:08.926Z,14.60
2024-01-14T07:16:37.402Z,16.50
2024-01-14T07:19:05.200Z,21.70
2024-01-14T07:21:32.880Z,15.30
2024-01-14T07:24:00.474Z,15.10
2024-01-14T07:26:27.926Z,16.20
2024-01-14T07:28:55.410Z,14.50
2024-01-14T07:31:28.160Z,15.90
2024-01-14T07:33:55.692Z,17.20
2024-01-14T07:36:23.549Z,15.70
2024-01-14T07:38:53.173Z,18.60
2024-01-14T07:41:20.754Z,14.80
2024-01-14T07:43:48.030Z,17.70
2024-01-14T07:46:15.186Z,16.70
2024-01-14T07:48:43.821Z,18.60
2024-01-14T07:51:11.402Z,15.90
2024-01-14T07:53:38.574Z,18.30
2024-01-14T07:56:06.350Z,19.10
2024-01-14T07:58:33.495Z,18.70
2024-01-14T08:01:03.333Z,14.60
2024-01-14T08:03:34.490Z,15.10
2024-01-14T08:06:02.041Z,13.40
2024-01-14T08:08:30.410Z,15.90
2024-01-14T08:10:57.489Z,15.90
2024-01-14T08:13:25.015Z,18.80
2024-01-14T08:15:58.177Z,13.50
2024-01-14T08:18:31.686Z,13.50
2024-01-14T08:21:00.321Z,16.80
2024-01-14T08:23:31.269Z,18.70
2024-01-14T08:25:59.180Z,16.90
2024-01-14T08:28:26.395Z,18.40
2024-01-14T08:30:53.780Z,21.00
2024-01-14T08:33:21.180Z,16.10
2024-01-14T08:35:48.345Z,18.80
2024-01-14T08:38:15.501Z,16.80
2024-01-14T08:40:42.695Z,22.40
2024-01-14T08:43:10.001Z,21.20
2024-01-14T08:45:37.287Z,15.40
2024-01-14T08:48:06.636Z,18.30
2024-01-14T08:50:34.234Z,20.30
2024-01-14T08:53:01.339Z,19.30
2024-01-14T08:55:30.104Z,18.90
2024-01-14T08:57:57.333Z,20.20
2024-01-14T09:00:24.748Z,15.60
2024-01-14T09:02:52.006Z,19.30
2024-01-14T09:05:19.499Z,22.10
2024-01-14T09:07:46.776Z,19.50
2024-01-14T09:10:14.150Z,21.60
2024-01-14T09:12:41.324Z,18.60
2024-01-14T09:15:09.065Z,17.70
2024-01-14T09:17:36.506Z,24.70
2024-01-14T09:20:05.243Z,20.20
2024-01-14T09:22:32.577Z,21.60
2024-01-14T09:24:59.682Z,20.50
2024-01-14T09:27:29.438Z,21.10
2024-01-14T09:29:56.666Z,22.80
2024-01-14T09:32:23.884Z,23.60
2024-01-14T09:34:51.153Z,33.20
2024-01-14T09:37:18.559Z,26.90
2024-01-14T09:39:46.331Z,22.70
2024-01-14T09:42:36.320Z,20.90
2024-01-14T09:45:06.132Z,23.30
2024-01-14T09:47:34.545Z,22.60
2024-01-14T09:50:02.455Z,21.30
2024-01-14T09:52:34.345Z,19.80
2024-01-14T09:55:02.375Z,18.90
2024-01-14T09:57:33.392Z,18.80
2024-01-14T10:00:07.602Z,21.10
2024-01-14T10:02:38.097Z,18.40
2024-01-14T10:05:05.963Z,22.70
2024-01-14T10:07:34.259Z,26.70
2024-01-14T10:10:02.171Z,26.10
2024-01-14T10:12:29.836Z,20.80
2024-01-14T10:15:02.124Z,26.80
2024-01-14T10:17:29.557Z,26.80
2024-01-14T10:19:59.335Z,23.60
2024-01-14T10:22:29.880Z,24.10
2024-01-14T10:24:58.166Z,18.30
2024-01-14T10:27:35.416Z,19.30
2024-01-14T10:30:10.946Z,18.20
2024-01-14T10:33:15.457Z,18.30
2024-01-14T10:35:26.700Z,19.50
2024-01-14T10:37:54.145Z,17.10
2024-01-14T10:40:21.496Z,24.20
2024-01-14T10:42:48.828Z,20.40
2024-01-14T10:45:16.186Z,18.80
2024-01-14T10:47:48.321Z,17.10
2024-01-14T10:50:19.384Z,20.40
2024-01-14T10:52:57.403Z,22.30
2024-01-14T10:55:41.963Z,27.80
2024-01-14T10:58:19.259Z,26.30
2024-01-14T11:00:51.645Z,25.50
2024-01-14T11:03:20.177Z,23.00
2024-01-14T11:05:47.679Z,16.50
2024-01-14T11:08:17.900Z,18.40
2024-01-14T11:10:45.980Z,19.10
2024-01-14T11:13:29.916Z,17.70
2024-01-14T11:16:15.045Z,18.90
2024-01-14T11:19:02.597Z,19.50
2024-01-14T11:22:17.574Z,23.20
2024-01-14T11:24:53.128Z,17.10
2024-01-14T11:27:25.087Z,17.50
2024-01-14T11:29:53.000Z,17.90
2024-01-14T11:32:25.452Z,16.00
2024-01-14T11:34:55.975Z,15.00
2024-01-14T11:37:43.358Z,15.80
2024-01-14T11:40:31.545Z,18.20
2024-01-14T11:43:09.037Z,13.20
2024-01-14T11:45:38.197Z,16.60
2024-01-14T11:48:07.852Z,17.60
2024-01-14T11:50:37.567Z,14.60
2024-01-14T11:53:08.766Z,16.40
2024-01-14T11:55:36.317Z,22.40
2024-01-14T11:58:15.514Z,28.60
2024-01-14T12:00:44.428Z,21.40
2024-01-14T12:03:14.180Z,24.40
2024-01-14T12:05:42.346Z,19.00
2024-01-14T12:08:10.601Z,19.10
2024-01-14T12:10:38.024Z,16.80
2024-01-14T12:13:09.150Z,22.50
2024-01-14T12:15:38.593Z,20.60
2024-01-14T12:18:08.112Z,26.50
2024-01-14T12:20:35.968Z,25.10
2024-01-14T12:23:07.492Z,28.60
2024-01-14T12:25:37.540Z,21.80
2024-01-14T12:28:05.567Z,20.20
2024-01-14T12:30:36.908Z,21.40
2024-01-14T12:33:07.015Z,16.60
2024-01-14T12:35:36.478Z,20.50
2024-01-14T12:38:05.005Z,23.50
2024-01-14T12:40:32.668Z,23.30
2024-01-14T12:43:01.266Z,26.00
2024-01-14T12:45:28.512Z,30.90
2024-01-14T12:48:03.390Z,26.80
2024-01-14T12:50:34.880Z,26.80
2024-01-14T12:53:06.872Z,27.20
2024-01-14T12:55:34.021Z,22.10
2024-01-14T12:58:02.486Z,20.30
2024-01-14T13:00:33.159Z,26.00
2024-01-14T13:03:01.114Z,13.90
2024-01-14T13:05:28.560Z,18.90
2024-01-14T13:07:55.856Z,20.90
2024-01-14T13:10:22.996Z,19.90
2024-01-14T13:12:50.438Z,20.60
2024-01-14T13:15:18.184Z,21.00
2024-01-14T13:17:46.072Z,22.90
2024-01-14T13:20:13.686Z,22.10
2024-01-14T13:22:40.914Z,28.80
2024-01-14T13:25:08.877Z,20.80
2024-01-14T13:27:36.361Z,31.10
2024-01-14T13:30:05.736Z,30.30
2024-01-14T13:32:38.585Z,28.20
2024-01-14T13:35:07.942Z,29.70
2024-01-14T13:37:39.242Z,35.00
2024-01-14T13:40:07.182Z,44.80
2024-01-14T13:42:37.784Z,51.20
2024-01-14T13:45:07.618Z,36.30
2024-01-14T13:47:35.482Z,46.40
2024-01-14T13:50:04.573Z,35.60
2024-01-14T13:52:32.290Z,42.80
2024-01-14T13:54:59.753Z,40.70
2024-01-14T13:57:27.196Z,32.40
2024-01-14T13:59:54.488Z,41.20
2024-01-14T14:02:23.560Z,44.30
2024-01-14T14:05:02.450Z,35.60
2024-01-14T14:07:35.084Z,35.40
2024-01-14T14:10:02.162Z,33.90
2024-01-14T14:12:29.485Z,30.30
2024-01-14T14:14:58.170Z,31.40
2024-01-14T14:17:25.400Z,30.60
2024-01-14T14:19:53.073Z,25.80
2024-01-14T14:22:21.569Z,28.10
2024-01-14T14:24:49.353Z,22.80
2024-01-14T14:27:19.471Z,27.70
2024-01-14T14:29:48.724Z,18.30
2024-01-14T14:32:16.001Z,21.70
2024-01-14T14:34:44.318Z,23.80
2024-01-14T14:37:11.619Z,27.80
2024-01-14T14:39:38.733Z,27.10
2024-01-14T14:42:08.667Z,35.30
2024-01-14T14:44:36.357Z,38.00
2024-01-14T14:47:03.763Z,17.90
2024-01-14T14:49:31.023Z,27.10
2024-01-14T14:51:58.457Z,26.10
2024-01-14T14:54:25.705Z,30.00
2024-01-14T14:56:52.936Z,27.20
2024-01-14T14:59:21.858Z,25.50
2024-01-14T15:01:49.629Z,31.80
2024-01-14T15:04:17.433Z,29.70
2024-01-14T15:06:46.588Z,29.30
2024-01-14T15:09:16.176Z,29.00
2024-01-14T15:11:43.707Z,29.10
2024-01-14T15:14:11.818Z,31.00
2024-01-14T15:16:41.742Z,30.80
2024-01-14T15:19:09.536Z,34.20
2024-01-14T15:21:37.587Z,28.10
2024-01-14T15:24:05.102Z,24.20
2024-01-14T15:26:32.518Z,28.30
2024-01-14T15:28:59.776Z,27.60
2024-01-14T15:31:27.086Z,28.00
2024-01-14T15:33:54.629Z,33.20
2024-01-14T15:36:22.765Z,31.90
2024-01-14T15:38:50.677Z,27.80
2024-01-14T15:41:17.961Z,24.60
2024-01-14T15:43:45.164Z,25.40
2024-01-14T15:46:12.302Z,22.00
2024-01-14T15:48:42.526Z,29.10
2024-01-14T15:51:13.668Z,32.20
2024-01-14T15:53:43.014Z,30.20
2024-01-14T15:56:10.914Z,25.40
2024-01-14T15:58:40.599Z,28.70
2024-01-14T16:01:14.228Z,17.70
2024-01-14T16:03:45.024Z,23.10
2024-01-14T16:08:42.328Z,21.20
2024-01-14T16:11:10.244Z,21.00
2024-01-14T16:13:37.831Z,24.20
2024-01-14T16:16:06.706Z,28.70
2024-01-14T16:18:35.123Z,26.40
2024-01-14T16:21:06.169Z,22.00
2024-01-14T16:23:40.183Z,29.20
2024-01-14T16:26:09.453Z,26.70
2024-01-14T16:28:37.391Z,29.30
2024-01-14T16:31:11.724Z,27.10
2024-01-14T16:33:44.129Z,30.20
2024-01-14T16:36:17.054Z,27.20
2024-01-14T16:38:45.787Z,37.50
2024-01-14T16:41:13.683Z,41.30
2024-01-14T16:43:41.439Z,43.40
2024-01-14T16:46:09.205Z,42.60
2024-01-14T16:48:37.080Z,34.90
2024-01-14T16:51:09.280Z,32.00
2024-01-14T16:53:41.162Z,34.50
2024-01-14T16:56:14.344Z,36.70
2024-01-14T16:58:44.077Z,33.90
2024-01-14T17:01:16.548Z,38.70
2024-01-14T17:03:51.021Z,41.30
2024-01-14T17:06:20.055Z,40.90
2024-01-14T17:08:48.812Z,36.50
2024-01-14T17:11:20.164Z,34.20
2024-01-14T17:13:47.588Z,35.00
2024-01-14T17:16:27.104Z,39.10
2024-01-14T17:18:59.997Z,46.00
2024-01-14T17:21:29.077Z,40.80
2024-01-14T17:23:56.897Z,42.90
2024-01-14T17:26:24.097Z,43.30
2024-01-14T17:28:51.222Z,39.50
2024-01-14T17:31:19.295Z,38.40
2024-01-14T17:33:49.231Z,40.20
2024-01-14T17:36:18.633Z,34.00
2024-01-14T17:38:48.111Z,29.70
2024-01-14T17:41:15.971Z,29.40
2024-01-14T17:43:43.282Z,32.80
2024-01-14T17:46:11.182Z,34.60
2024-01-14T17:48:40.865Z,33.80
2024-01-14T17:51:10.464Z,36.10
2024-01-14T17:53:42.741Z,37.70
2024-01-14T17:56:13.083Z,33.90
2024-01-14T17:58:41.835Z,37.10
2024-01-14T18:01:11.269Z,39.90
2024-01-14T18:03:41.629Z,37.60
2024-01-14T18:06:10.983Z,34.80
2024-01-14T18:08:38.744Z,33.10
2024-01-14T18:11:05.878Z,37.90
2024-01-14T18:13:32.983Z,41.40
2024-01-14T18:16:01.899Z,38.50
2024-01-14T18:18:29.565Z,40.40
2024-01-14T18:20:57.775Z,40.80
2024-01-14T18:23:25.882Z,39.90
2024-01-14T18:25:53.344Z,38.30
2024-01-14T18:28:20.560Z,39.40
2024-01-14T18:30:47.909Z,44.10
2024-01-14T18:33:15.519Z,46.60
2024-01-14T18:35:44.393Z,41.30
2024-01-14T18:38:14.204Z,38.10
2024-01-14T18:40:41.447Z,37.50
2024-01-14T18:43:13.172Z,35.30
2024-01-14T18:48:08.613Z,34.40
2024-01-14T18:50:36.889Z,33.20
2024-01-14T18:53:06.118Z,33.70
2024-01-14T18:55:36.410Z,27.20
2024-01-14T18:58:03.988Z,25.20
2024-01-14T19:00:31.645Z,29.30
2024-01-14T19:02:59.252Z,24.20
2024-01-14T19:05:27.901Z,24.20
2024-01-14T19:07:55.201Z,33.20
2024-01-14T19:10:22.287Z,29.70
2024-01-14T19:12:50.643Z,30.70
2024-01-14T19:15:19.062Z,27.70
2024-01-14T19:17:46.265Z,28.30
2024-01-14T19:20:13.574Z,33.80
2024-01-14T19:22:41.087Z,38.10
2024-01-14T19:25:10.620Z,43.70
2024-01-14T19:27:38.270Z,54.70
2024-01-14T19:30:07.456Z,60.40
2024-01-14T19:32:35.119Z,62.70
2024-01-14T19:35:02.465Z,65.50
2024-01-14T19:37:30.919Z,58.00
2024-01-14T19:39:59.763Z,55.70
2024-01-14T19:42:27.358Z,48.60
2024-01-14T19:44:54.827Z,56.10
2024-01-14T19:47:22.790Z,53.20
2024-01-14T19:49:49.932Z,47.10
2024-01-14T19:52:17.196Z,43.10
2024-01-14T19:54:44.639Z,42.40
2024-01-14T19:57:12.035Z,41.50
2024-01-14T19:59:39.270Z,39.60
2024-01-14T20:02:06.821Z,42.20
2024-01-14T20:04:33.943Z,38.50
2024-01-14T20:07:01.172Z,42.40
2024-01-14T20:09:28.324Z,36.70
2024-01-14T20:12:01.131Z,34.20
2024-01-14T20:14:28.909Z,30.10
2024-01-14T20:16:57.415Z,44.80
2024-01-14T20:19:25.018Z,43.70
2024-01-14T20:21:52.839Z,39.40
2024-01-14T20:24:21.744Z,35.20
2024-01-14T20:26:49.209Z,50.40
2024-01-14T20:29:16.364Z,41.00
2024-01-14T20:31:43.636Z,42.20
2024-01-14T20:34:11.178Z,41.70
2024-01-14T20:36:38.571Z,37.70
2024-01-14T20:39:06.109Z,38.30
2024-01-14T20:41:33.370Z,33.90
2024-01-14T20:44:00.666Z,32.90
2024-01-14T20:46:27.886Z,29.10
2024-01-14T20:48:55.069Z,33.50
2024-01-14T20:51:22.990Z,32.80
2024-01-14T20:53:50.255Z,35.50
2024-01-14T20:56:17.512Z,36.20
2024-01-14T20:58:44.769Z,38.30
2024-01-14T21:01:11.974Z,33.40
2024-01-14T21:03:39.871Z,30.90
2024-01-14T21:06:11.275Z,32.80
2024-01-14T21:08:40.145Z,31.80
2024-01-14T21:11:07.700Z,36.40
2024-01-14T21:13:34.854Z,35.30
2024-01-14T21:16:01.917Z,28.40
2024-01-14T21:18:29.303Z,26.80
2024-01-14T21:20:57.546Z,25.20
2024-01-14T21:23:24.708Z,22.70
2024-01-14T21:25:51.823Z,23.20
2024-01-14T21:28:19.441Z,25.80
2024-01-14T21:30:46.683Z,31.90
2024-01-14T21:33:14.257Z,29.30
2024-01-14T21:35:41.493Z,23.90
2024-01-14T21:38:08.536Z,24.40
2024-01-14T21:40:35.758Z,24.70
2024-01-14T21:43:02.839Z,28.60
2024-01-14T21:45:30.122Z,29.30
2024-01-14T21:47:57.440Z,24.40
2024-01-14T21:50:24.726Z,36.70
2024-01-14T21:52:51.728Z,24.20
2024-01-14T21:55:19.241Z,25.70
2024-01-14T21:57:46.501Z,22.40
2024-01-14T22:00:14.314Z,19.40
2024-01-14T22:02:41.542Z,25.70
2024-01-14T22:05:09.092Z,21.60
2024-01-14T22:07:36.328Z,23.70
2024-01-14T22:10:03.713Z,20.20
2024-01-14T22:12:30.914Z,24.70
2024-01-14T22:14:58.118Z,23.60
2024-01-14T22:17:25.307Z,22.20
2024-01-14T22:19:52.776Z,23.60
2024-01-14T22:22:20.093Z,21.40
2024-01-14T22:24:47.458Z,21.60
2024-01-14T22:27:14.741Z,18.40
2024-01-14T22:29:41.976Z,18.30
2024-01-14T22:32:09.221Z,21.90
2024-01-14T22:34:36.665Z,23.30
2024-01-14T22:37:04.224Z,19.50
2024-01-14T22:39:32.496Z,19.70
2024-01-14T22:41:59.600Z,23.10
2024-01-14T22:44:26.945Z,22.60
2024-01-14T22:46:55.121Z,20.70
2024-01-14T22:49:22.332Z,23.80
2024-01-14T22:51:50.078Z,22.30
2024-01-14T22:54:17.598Z,21.90
2024-01-14T22:56:44.868Z,27.70
2024-01-14T22:59:12.042Z,24.50
2024-01-14T23:01:39.244Z,23.90
2024-01-14T23:04:08.636Z,24.60
2024-01-14T23:06:36.204Z,26.80
2024-01-14T23:09:03.899Z,24.50
2024-01-14T23:11:31.600Z,30.80
2024-01-14T23:13:58.827Z,21.50
2024-01-14T23:16:25.985Z,21.70
2024-01-14T23:18:53.374Z,22.50
2024-01-14T23:21:20.615Z,20.00
2024-01-14T23:23:49.104Z,24.30
2024-01-14T23:26:16.192Z,18.80
2024-01-14T23:28:43.494Z,23.80
2024-01-14T23:31:10.720Z,19.50
2024-01-14T23:33:38.452Z,19.10
2024-01-14T23:36:06.108Z,24.70
2024-01-14T23:38:33.341Z,17.50
2024-01-14T23:41:00.399Z,16.40
2024-01-14T23:43:27.756Z,19.50
2024-01-14T23:45:54.937Z,22.90
2024-01-14T23:48:22.390Z,20.10
2024-01-14T23:50:49.657Z,17.20
2024-01-14T23:53:17.163Z,20.10
2024-01-14T23:55:44.336Z,18.50
2024-01-14T23:58:14.102Z,14.30
